sensor_id;sensor_type;location;lat;lon;timestamp;pressure;altitude;pressure_sealevel;temperature;humidity
80424;BME280;69765;47.668;19.326;2023-07-20T00:01:57;98467.94;;;22.62;69.54
80424;BME280;69765;47.668;19.326;2023-07-20T00:05:17;98448.69;;;22.46;70.59
80424;BME280;69765;47.668;19.326;2023-07-20T00:08:27;98465.16;;;22.39;70.82
80424;BME280;69765;47.668;19.326;2023-07-20T00:11:29;98463.38;;;22.33;71.62
80424;BME280;69765;47.668;19.326;2023-07-20T00:14:32;98466.72;;;22.14;72.68
80424;BME280;69765;47.668;19.326;2023-07-20T00:17:34;98475.34;;;22.07;72.84
80424;BME280;69765;47.668;19.326;2023-07-20T00:20:39;98476.84;;;21.86;73.25
80424;BME280;69765;47.668;19.326;2023-07-20T00:23:42;98460.19;;;21.69;72.87
80424;BME280;69765;47.668;19.326;2023-07-20T00:26:44;98461.69;;;21.47;73.24
80424;BME280;69765;47.668;19.326;2023-07-20T00:29:47;98453.63;;;21.27;74.31
80424;BME280;69765;47.668;19.326;2023-07-20T00:32:49;98444.72;;;21.10;75.04
80424;BME280;69765;47.668;19.326;2023-07-20T00:35:52;98449.88;;;21.07;75.86
80424;BME280;69765;47.668;19.326;2023-07-20T00:38:54;98451.41;;;20.92;76.54
80424;BME280;69765;47.668;19.326;2023-07-20T00:41:57;98457.50;;;20.93;76.17
80424;BME280;69765;47.668;19.326;2023-07-20T00:44:59;98454.84;;;20.88;76.05
80424;BME280;69765;47.668;19.326;2023-07-20T00:48:04;98453.03;;;20.83;76.14
80424;BME280;69765;47.668;19.326;2023-07-20T00:51:09;98447.63;;;20.69;76.84
80424;BME280;69765;47.668;19.326;2023-07-20T00:54:14;98439.38;;;20.41;77.81
80424;BME280;69765;47.668;19.326;2023-07-20T00:57:18;98434.03;;;20.31;78.00
80424;BME280;69765;47.668;19.326;2023-07-20T01:00:21;98442.31;;;20.07;79.39
80424;BME280;69765;47.668;19.326;2023-07-20T01:03:25;98440.66;;;20.10;79.25
80424;BME280;69765;47.668;19.326;2023-07-20T01:06:44;98438.06;;;20.10;79.34
80424;BME280;69765;47.668;19.326;2023-07-20T01:09:58;98429.31;;;20.05;79.33
80424;BME280;69765;47.668;19.326;2023-07-20T01:13:06;98436.16;;;20.02;79.84
80424;BME280;69765;47.668;19.326;2023-07-20T01:16:09;98438.75;;;20.00;79.81
80424;BME280;69765;47.668;19.326;2023-07-20T01:19:13;98435.38;;;20.07;79.66
80424;BME280;69765;47.668;19.326;2023-07-20T01:31:52;98416.00;;;19.87;79.94
80424;BME280;69765;47.668;19.326;2023-07-20T01:34:56;98410.25;;;19.58;81.17
80424;BME280;69765;47.668;19.326;2023-07-20T01:38:01;98419.84;;;19.60;81.12
80424;BME280;69765;47.668;19.326;2023-07-20T01:41:03;98424.97;;;19.57;81.40
80424;BME280;69765;47.668;19.326;2023-07-20T01:44:06;98427.31;;;19.44;81.94
80424;BME280;69765;47.668;19.326;2023-07-20T01:47:09;98423.78;;;19.40;81.94
80424;BME280;69765;47.668;19.326;2023-07-20T01:50:11;98432.28;;;19.31;82.55
80424;BME280;69765;47.668;19.326;2023-07-20T01:53:13;98431.56;;;19.38;81.78
80424;BME280;69765;47.668;19.326;2023-07-20T01:56:16;98431.41;;;19.31;82.54
80424;BME280;69765;47.668;19.326;2023-07-20T01:59:18;98439.72;;;19.14;83.21
80424;BME280;69765;47.668;19.326;2023-07-20T02:02:23;98436.28;;;19.15;83.08
80424;BME280;69765;47.668;19.326;2023-07-20T02:05:26;98432.16;;;19.25;82.92
80424;BME280;69765;47.668;19.326;2023-07-20T02:08:28;98438.31;;;19.30;83.02
80424;BME280;69765;47.668;19.326;2023-07-20T02:11:31;98442.41;;;19.19;83.08
80424;BME280;69765;47.668;19.326;2023-07-20T02:14:34;98438.81;;;19.11;83.33
80424;BME280;69765;47.668;19.326;2023-07-20T02:17:36;98443.94;;;19.09;83.97
80424;BME280;69765;47.668;19.326;2023-07-20T02:20:41;98457.94;;;19.16;83.71
80424;BME280;69765;47.668;19.326;2023-07-20T02:23:43;98461.28;;;19.10;83.46
80424;BME280;69765;47.668;19.326;2023-07-20T02:26:45;98473.44;;;19.13;82.79
80424;BME280;69765;47.668;19.326;2023-07-20T02:29:48;98474.19;;;19.06;82.98
80424;BME280;69765;47.668;19.326;2023-07-20T02:32:50;98474.78;;;18.96;82.82
80424;BME280;69765;47.668;19.326;2023-07-20T02:35:53;98482.44;;;18.88;83.08
80424;BME280;69765;47.668;19.326;2023-07-20T02:38:55;98484.09;;;18.84;83.60
80424;BME280;69765;47.668;19.326;2023-07-20T02:41:57;98492.63;;;18.79;83.89
80424;BME280;69765;47.668;19.326;2023-07-20T02:44:59;98486.59;;;18.81;84.37
80424;BME280;69765;47.668;19.326;2023-07-20T02:48:02;98485.97;;;18.92;84.35
80424;BME280;69765;47.668;19.326;2023-07-20T02:51:05;98478.31;;;18.98;84.06
80424;BME280;69765;47.668;19.326;2023-07-20T02:54:07;98491.69;;;19.16;83.74
80424;BME280;69765;47.668;19.326;2023-07-20T02:57:10;98478.81;;;19.22;83.72
80424;BME280;69765;47.668;19.326;2023-07-20T03:00:13;98482.31;;;19.24;84.08
80424;BME280;69765;47.668;19.326;2023-07-20T03:03:17;98479.66;;;19.20;84.38
80424;BME280;69765;47.668;19.326;2023-07-20T03:06:20;98482.09;;;19.12;84.38
80424;BME280;69765;47.668;19.326;2023-07-20T03:09:23;98477.00;;;19.17;83.97
80424;BME280;69765;47.668;19.326;2023-07-20T03:12:25;98489.31;;;19.27;83.77
80424;BME280;69765;47.668;19.326;2023-07-20T03:15:27;98491.81;;;19.22;84.43
80424;BME280;69765;47.668;19.326;2023-07-20T03:18:31;98488.44;;;19.26;84.01
80424;BME280;69765;47.668;19.326;2023-07-20T03:21:34;98487.50;;;19.23;84.53
80424;BME280;69765;47.668;19.326;2023-07-20T03:24:36;98489.22;;;19.22;84.69
80424;BME280;69765;47.668;19.326;2023-07-20T03:27:38;98492.66;;;19.21;84.90
80424;BME280;69765;47.668;19.326;2023-07-20T03:30:41;98498.81;;;19.25;85.41
80424;BME280;69765;47.668;19.326;2023-07-20T03:33:43;98489.41;;;19.31;84.83
80424;BME280;69765;47.668;19.326;2023-07-20T03:36:46;98494.81;;;19.42;84.31
80424;BME280;69765;47.668;19.326;2023-07-20T03:39:49;98491.69;;;19.58;82.36
80424;BME280;69765;47.668;19.326;2023-07-20T03:42:51;98499.03;;;19.79;81.23
80424;BME280;69765;47.668;19.326;2023-07-20T03:45:54;98505.44;;;19.98;80.10
80424;BME280;69765;47.668;19.326;2023-07-20T03:48:56;98504.78;;;20.10;79.79
80424;BME280;69765;47.668;19.326;2023-07-20T03:51:58;98503.16;;;20.16;78.95
80424;BME280;69765;47.668;19.326;2023-07-20T03:55:01;98504.16;;;20.25;78.61
80424;BME280;69765;47.668;19.326;2023-07-20T03:58:04;98502.53;;;20.30;78.29
80424;BME280;69765;47.668;19.326;2023-07-20T04:01:06;98502.56;;;20.33;78.41
80424;BME280;69765;47.668;19.326;2023-07-20T04:04:09;98497.41;;;20.36;77.67
80424;BME280;69765;47.668;19.326;2023-07-20T04:07:11;98493.13;;;20.38;77.61
80424;BME280;69765;47.668;19.326;2023-07-20T04:10:17;98496.69;;;20.45;77.50
80424;BME280;69765;47.668;19.326;2023-07-20T04:13:20;98501.09;;;20.47;76.89
80424;BME280;69765;47.668;19.326;2023-07-20T04:16:22;98494.19;;;20.49;76.72
80424;BME280;69765;47.668;19.326;2023-07-20T04:19:25;98503.78;;;20.52;76.34
80424;BME280;69765;47.668;19.326;2023-07-20T04:22:27;98502.00;;;20.51;76.84
80424;BME280;69765;47.668;19.326;2023-07-20T04:25:29;98507.28;;;20.54;75.87
80424;BME280;69765;47.668;19.326;2023-07-20T04:28:35;98492.47;;;20.51;75.41
80424;BME280;69765;47.668;19.326;2023-07-20T04:31:38;98494.28;;;20.55;75.82
80424;BME280;69765;47.668;19.326;2023-07-20T04:34:41;98497.00;;;20.63;76.02
80424;BME280;69765;47.668;19.326;2023-07-20T04:37:43;98499.59;;;20.61;76.15
80424;BME280;69765;47.668;19.326;2023-07-20T04:40:51;98507.41;;;20.61;76.63
80424;BME280;69765;47.668;19.326;2023-07-20T04:43:53;98503.03;;;20.60;76.22
80424;BME280;69765;47.668;19.326;2023-07-20T04:47:05;98503.06;;;20.62;76.45
80424;BME280;69765;47.668;19.326;2023-07-20T04:50:11;98506.47;;;20.58;76.31
80424;BME280;69765;47.668;19.326;2023-07-20T04:53:13;98499.59;;;20.61;76.20
80424;BME280;69765;47.668;19.326;2023-07-20T04:56:16;98495.41;;;20.71;75.55
80424;BME280;69765;47.668;19.326;2023-07-20T04:59:19;98492.13;;;20.84;74.36
80424;BME280;69765;47.668;19.326;2023-07-20T05:02:21;98492.41;;;21.04;73.95
80424;BME280;69765;47.668;19.326;2023-07-20T05:05:24;98498.78;;;21.29;73.34
80424;BME280;69765;47.668;19.326;2023-07-20T05:08:26;98489.50;;;21.48;71.78
80424;BME280;69765;47.668;19.326;2023-07-20T05:11:29;98481.00;;;21.67;70.57
80424;BME280;69765;47.668;19.326;2023-07-20T05:14:31;98497.75;;;21.89;69.21
80424;BME280;69765;47.668;19.326;2023-07-20T05:17:34;98504.09;;;22.13;69.70
80424;BME280;69765;47.668;19.326;2023-07-20T05:20:36;98497.25;;;22.23;68.61
80424;BME280;69765;47.668;19.326;2023-07-20T05:23:39;98497.28;;;22.26;68.96
80424;BME280;69765;47.668;19.326;2023-07-20T05:26:41;98502.53;;;22.30;68.05
80424;BME280;69765;47.668;19.326;2023-07-20T05:29:46;98494.66;;;22.29;67.64
80424;BME280;69765;47.668;19.326;2023-07-20T05:32:49;98499.16;;;22.47;66.86
80424;BME280;69765;47.668;19.326;2023-07-20T05:35:54;98497.53;;;22.59;65.73
80424;BME280;69765;47.668;19.326;2023-07-20T05:38:57;98495.78;;;22.60;66.56
80424;BME280;69765;47.668;19.326;2023-07-20T05:41:59;98502.81;;;22.71;66.35
80424;BME280;69765;47.668;19.326;2023-07-20T05:45:01;98500.38;;;22.90;66.64
80424;BME280;69765;47.668;19.326;2023-07-20T05:48:04;98498.75;;;23.13;64.61
80424;BME280;69765;47.668;19.326;2023-07-20T05:51:07;98522.31;;;23.24;63.39
80424;BME280;69765;47.668;19.326;2023-07-20T05:54:09;98517.22;;;23.44;62.64
80424;BME280;69765;47.668;19.326;2023-07-20T05:57:11;98525.19;;;23.84;61.67
80424;BME280;69765;47.668;19.326;2023-07-20T06:00:14;98508.69;;;24.35;59.47
80424;BME280;69765;47.668;19.326;2023-07-20T06:03:17;98516.53;;;25.13;57.93
80424;BME280;69765;47.668;19.326;2023-07-20T06:06:19;98514.63;;;25.60;55.58
80424;BME280;69765;47.668;19.326;2023-07-20T06:09:23;98519.81;;;25.70;52.51
80424;BME280;69765;47.668;19.326;2023-07-20T06:12:25;98511.94;;;25.67;53.80
80424;BME280;69765;47.668;19.326;2023-07-20T06:15:36;98517.84;;;26.12;52.43
80424;BME280;69765;47.668;19.326;2023-07-20T06:18:38;98517.66;;;26.37;48.92
80424;BME280;69765;47.668;19.326;2023-07-20T06:21:41;98520.13;;;26.57;47.94
80424;BME280;69765;47.668;19.326;2023-07-20T06:24:44;98522.09;;;26.30;49.11
80424;BME280;69765;47.668;19.326;2023-07-20T06:27:46;98523.09;;;26.12;49.19
80424;BME280;69765;47.668;19.326;2023-07-20T06:30:48;98516.28;;;25.79;49.53
80424;BME280;69765;47.668;19.326;2023-07-20T06:33:53;98522.53;;;25.51;51.19
80424;BME280;69765;47.668;19.326;2023-07-20T06:36:56;98515.38;;;25.88;49.61
80424;BME280;69765;47.668;19.326;2023-07-20T06:39:58;98514.38;;;26.04;48.51
80424;BME280;69765;47.668;19.326;2023-07-20T06:43:03;98519.63;;;26.07;48.81
80424;BME280;69765;47.668;19.326;2023-07-20T06:46:09;98521.78;;;26.67;46.12
80424;BME280;69765;47.668;19.326;2023-07-20T06:49:24;98520.69;;;26.91;46.05
80424;BME280;69765;47.668;19.326;2023-07-20T06:52:27;98529.09;;;27.28;45.99
80424;BME280;69765;47.668;19.326;2023-07-20T06:55:29;98537.88;;;27.27;46.11
80424;BME280;69765;47.668;19.326;2023-07-20T06:58:32;98537.16;;;27.88;44.76
80424;BME280;69765;47.668;19.326;2023-07-20T07:01:35;98544.34;;;27.71;44.15
80424;BME280;69765;47.668;19.326;2023-07-20T07:04:38;98547.38;;;28.08;43.88
80424;BME280;69765;47.668;19.326;2023-07-20T07:07:41;98548.78;;;28.35;42.86
80424;BME280;69765;47.668;19.326;2023-07-20T07:10:43;98558.47;;;28.87;42.73
80424;BME280;69765;47.668;19.326;2023-07-20T07:13:46;98556.19;;;28.67;42.04
80424;BME280;69765;47.668;19.326;2023-07-20T07:16:50;98557.84;;;28.73;41.23
80424;BME280;69765;47.668;19.326;2023-07-20T07:19:54;98557.06;;;29.19;39.93
80424;BME280;69765;47.668;19.326;2023-07-20T07:23:00;98553.28;;;29.32;39.57
80424;BME280;69765;47.668;19.326;2023-07-20T07:26:02;98553.69;;;29.57;39.34
80424;BME280;69765;47.668;19.326;2023-07-20T07:29:05;98553.84;;;30.30;38.12
80424;BME280;69765;47.668;19.326;2023-07-20T07:32:10;98564.06;;;30.47;36.93
80424;BME280;69765;47.668;19.326;2023-07-20T07:35:13;98562.53;;;30.37;36.71
80424;BME280;69765;47.668;19.326;2023-07-20T07:38:15;98547.97;;;30.19;38.25
80424;BME280;69765;47.668;19.326;2023-07-20T07:41:38;98552.44;;;30.54;36.79
80424;BME280;69765;47.668;19.326;2023-07-20T07:44:40;98563.25;;;30.43;35.80
80424;BME280;69765;47.668;19.326;2023-07-20T07:47:42;98559.09;;;30.33;35.75
80424;BME280;69765;47.668;19.326;2023-07-20T07:50:45;98571.28;;;30.77;34.78
80424;BME280;69765;47.668;19.326;2023-07-20T07:53:47;98561.13;;;31.29;34.79
80424;BME280;69765;47.668;19.326;2023-07-20T07:56:51;98573.44;;;31.61;33.56
80424;BME280;69765;47.668;19.326;2023-07-20T07:59:53;98574.16;;;31.02;34.11
80424;BME280;69765;47.668;19.326;2023-07-20T08:02:55;98586.47;;;31.03;34.74
80424;BME280;69765;47.668;19.326;2023-07-20T08:05:59;98594.06;;;30.83;36.17
80424;BME280;69765;47.668;19.326;2023-07-20T08:09:02;98583.53;;;31.14;35.13
80424;BME280;69765;47.668;19.326;2023-07-20T08:12:05;98583.75;;;31.72;34.90
80424;BME280;69765;47.668;19.326;2023-07-20T08:15:10;98585.47;;;31.73;33.85
80424;BME280;69765;47.668;19.326;2023-07-20T08:18:12;98576.97;;;32.50;32.03
80424;BME280;69765;47.668;19.326;2023-07-20T08:21:15;98567.25;;;33.04;32.15
80424;BME280;69765;47.668;19.326;2023-07-20T08:24:17;98577.75;;;33.07;31.41
80424;BME280;69765;47.668;19.326;2023-07-20T08:27:20;98576.81;;;31.66;32.38
80424;BME280;69765;47.668;19.326;2023-07-20T08:30:22;98591.41;;;30.46;34.36
80424;BME280;69765;47.668;19.326;2023-07-20T08:33:27;98595.38;;;29.38;36.60
80424;BME280;69765;47.668;19.326;2023-07-20T08:36:31;98598.31;;;28.70;36.87
80424;BME280;69765;47.668;19.326;2023-07-20T08:39:34;98596.22;;;28.35;37.55
80424;BME280;69765;47.668;19.326;2023-07-20T08:42:37;98596.44;;;29.76;35.98
80424;BME280;69765;47.668;19.326;2023-07-20T08:45:41;98589.56;;;30.48;36.32
80424;BME280;69765;47.668;19.326;2023-07-20T08:48:44;98594.53;;;30.62;33.46
80424;BME280;69765;47.668;19.326;2023-07-20T08:51:48;98596.31;;;31.33;34.20
80424;BME280;69765;47.668;19.326;2023-07-20T08:54:51;98602.50;;;31.64;31.87
80424;BME280;69765;47.668;19.326;2023-07-20T08:57:56;98600.38;;;32.38;31.13
80424;BME280;69765;47.668;19.326;2023-07-20T09:00:59;98604.38;;;33.05;30.15
80424;BME280;69765;47.668;19.326;2023-07-20T09:04:03;98611.88;;;32.93;27.92
80424;BME280;69765;47.668;19.326;2023-07-20T09:07:06;98610.63;;;33.54;27.74
80424;BME280;69765;47.668;19.326;2023-07-20T09:10:09;98603.94;;;33.93;26.84
80424;BME280;69765;47.668;19.326;2023-07-20T09:13:16;98615.75;;;33.61;27.35
80424;BME280;69765;47.668;19.326;2023-07-20T09:16:18;98618.53;;;34.51;27.44
80424;BME280;69765;47.668;19.326;2023-07-20T09:19:21;98618.28;;;34.34;27.71
80424;BME280;69765;47.668;19.326;2023-07-20T09:22:30;98612.03;;;35.02;25.67
80424;BME280;69765;47.668;19.326;2023-07-20T09:25:33;98611.97;;;34.60;26.52
80424;BME280;69765;47.668;19.326;2023-07-20T09:28:42;98599.75;;;34.32;25.89
80424;BME280;69765;47.668;19.326;2023-07-20T09:32:02;98610.97;;;34.41;27.28
80424;BME280;69765;47.668;19.326;2023-07-20T09:35:05;98619.31;;;34.53;27.54
80424;BME280;69765;47.668;19.326;2023-07-20T09:38:10;98627.47;;;35.15;26.02
80424;BME280;69765;47.668;19.326;2023-07-20T09:41:17;98616.13;;;34.44;27.17
80424;BME280;69765;47.668;19.326;2023-07-20T09:44:27;98616.78;;;34.72;26.65
80424;BME280;69765;47.668;19.326;2023-07-20T09:47:35;98618.50;;;35.78;24.61
80424;BME280;69765;47.668;19.326;2023-07-20T09:50:41;98609.75;;;36.88;24.61
80424;BME280;69765;47.668;19.326;2023-07-20T09:53:47;98613.06;;;35.20;24.69
80424;BME280;69765;47.668;19.326;2023-07-20T09:56:50;98600.13;;;35.52;26.97
80424;BME280;69765;47.668;19.326;2023-07-20T09:59:53;98607.94;;;36.89;24.44
80424;BME280;69765;47.668;19.326;2023-07-20T10:02:56;98602.94;;;35.88;24.30
80424;BME280;69765;47.668;19.326;2023-07-20T10:06:10;98597.66;;;35.47;24.78
80424;BME280;69765;47.668;19.326;2023-07-20T10:09:15;98598.97;;;37.08;23.81
80424;BME280;69765;47.668;19.326;2023-07-20T10:12:22;98597.75;;;38.15;21.21
80424;BME280;69765;47.668;19.326;2023-07-20T10:15:40;98596.53;;;37.89;21.61
80424;BME280;69765;47.668;19.326;2023-07-20T10:18:51;98598.00;;;37.62;21.98
80424;BME280;69765;47.668;19.326;2023-07-20T10:22:02;98593.03;;;38.83;21.84
80424;BME280;69765;47.668;19.326;2023-07-20T10:25:06;98603.91;;;38.65;21.18
80424;BME280;69765;47.668;19.326;2023-07-20T10:28:10;98608.94;;;37.22;23.29
80424;BME280;69765;47.668;19.326;2023-07-20T10:31:16;98624.50;;;35.02;25.63
80424;BME280;69765;47.668;19.326;2023-07-20T10:34:19;98600.00;;;33.54;27.83
80424;BME280;69765;47.668;19.326;2023-07-20T10:40:55;98616.00;;;31.55;30.35
80424;BME280;69765;47.668;19.326;2023-07-20T10:44:00;98598.97;;;31.33;30.96
80424;BME280;69765;47.668;19.326;2023-07-20T10:47:09;98588.63;;;32.17;28.58
80424;BME280;69765;47.668;19.326;2023-07-20T10:50:13;98590.25;;;34.91;25.39
80424;BME280;69765;47.668;19.326;2023-07-20T10:53:18;98587.09;;;36.04;23.80
80424;BME280;69765;47.668;19.326;2023-07-20T10:56:22;98594.47;;;34.09;25.26
80424;BME280;69765;47.668;19.326;2023-07-20T11:02:27;98595.47;;;31.94;28.86
80424;BME280;69765;47.668;19.326;2023-07-20T11:08:42;98596.31;;;31.33;29.27
80424;BME280;69765;47.668;19.326;2023-07-20T11:11:47;98589.66;;;31.50;29.36
80424;BME280;69765;47.668;19.326;2023-07-20T11:14:55;98602.91;;;31.16;29.63
80424;BME280;69765;47.668;19.326;2023-07-20T11:18:12;98590.84;;;30.69;30.06
80424;BME280;69765;47.668;19.326;2023-07-20T11:21:14;98599.22;;;30.10;31.16
80424;BME280;69765;47.668;19.326;2023-07-20T11:24:18;98595.50;;;29.78;31.66
80424;BME280;69765;47.668;19.326;2023-07-20T11:27:21;98589.63;;;30.06;31.93
80424;BME280;69765;47.668;19.326;2023-07-20T11:30:24;98589.94;;;30.70;30.72
80424;BME280;69765;47.668;19.326;2023-07-20T11:33:28;98585.00;;;31.26;30.66
80424;BME280;69765;47.668;19.326;2023-07-20T11:36:30;98591.97;;;31.30;31.81
80424;BME280;69765;47.668;19.326;2023-07-20T11:39:35;98578.66;;;31.64;30.33
80424;BME280;69765;47.668;19.326;2023-07-20T11:42:38;98577.69;;;31.98;30.50
80424;BME280;69765;47.668;19.326;2023-07-20T11:45:44;98580.72;;;31.86;28.91
80424;BME280;69765;47.668;19.326;2023-07-20T11:48:48;98587.00;;;31.81;28.91
80424;BME280;69765;47.668;19.326;2023-07-20T11:51:50;98578.03;;;31.87;28.91
80424;BME280;69765;47.668;19.326;2023-07-20T11:54:53;98588.19;;;31.71;28.72
80424;BME280;69765;47.668;19.326;2023-07-20T11:58:05;98578.50;;;30.32;29.90
80424;BME280;69765;47.668;19.326;2023-07-20T12:01:08;98585.56;;;31.39;30.06
80424;BME280;69765;47.668;19.326;2023-07-20T12:04:11;98587.03;;;32.11;27.13
80424;BME280;69765;47.668;19.326;2023-07-20T12:07:16;98579.31;;;32.60;24.56
80424;BME280;69765;47.668;19.326;2023-07-20T12:10:26;98585.34;;;33.68;25.49
80424;BME280;69765;47.668;19.326;2023-07-20T12:13:36;98574.72;;;33.68;24.64
80424;BME280;69765;47.668;19.326;2023-07-20T12:16:38;98583.25;;;33.52;24.01
80424;BME280;69765;47.668;19.326;2023-07-20T12:19:41;98570.78;;;33.29;24.84
80424;BME280;69765;47.668;19.326;2023-07-20T12:22:43;98572.50;;;33.05;23.76
80424;BME280;69765;47.668;19.326;2023-07-20T12:25:46;98579.53;;;33.08;24.52
80424;BME280;69765;47.668;19.326;2023-07-20T12:28:49;98573.94;;;33.41;24.17
80424;BME280;69765;47.668;19.326;2023-07-20T12:31:52;98582.94;;;33.37;25.06
80424;BME280;69765;47.668;19.326;2023-07-20T12:34:54;98579.06;;;32.95;24.50
80424;BME280;69765;47.668;19.326;2023-07-20T12:37:57;98578.94;;;32.72;25.31
80424;BME280;69765;47.668;19.326;2023-07-20T12:41:01;98576.34;;;32.70;26.07
80424;BME280;69765;47.668;19.326;2023-07-20T12:44:04;98576.06;;;32.51;25.75
80424;BME280;69765;47.668;19.326;2023-07-20T12:47:07;98580.09;;;32.91;26.01
80424;BME280;69765;47.668;19.326;2023-07-20T12:50:10;98570.56;;;32.58;25.17
80424;BME280;69765;47.668;19.326;2023-07-20T12:53:13;98579.44;;;31.68;25.89
80424;BME280;69765;47.668;19.326;2023-07-20T12:56:15;98587.19;;;31.43;27.25
80424;BME280;69765;47.668;19.326;2023-07-20T12:59:21;98581.31;;;30.63;27.37
80424;BME280;69765;47.668;19.326;2023-07-20T13:02:23;98581.56;;;30.14;28.16
80424;BME280;69765;47.668;19.326;2023-07-20T13:05:25;98579.69;;;29.77;29.34
80424;BME280;69765;47.668;19.326;2023-07-20T13:08:33;98578.53;;;29.45;30.47
80424;BME280;69765;47.668;19.326;2023-07-20T13:11:36;98587.88;;;29.63;30.67
80424;BME280;69765;47.668;19.326;2023-07-20T13:14:38;98584.63;;;29.94;30.08
80424;BME280;69765;47.668;19.326;2023-07-20T13:17:40;98580.69;;;29.71;30.16
80424;BME280;69765;47.668;19.326;2023-07-20T13:20:43;98573.75;;;30.06;30.35
80424;BME280;69765;47.668;19.326;2023-07-20T13:23:45;98576.78;;;30.29;29.08
80424;BME280;69765;47.668;19.326;2023-07-20T13:26:48;98568.63;;;30.39;28.74
80424;BME280;69765;47.668;19.326;2023-07-20T13:29:51;98567.00;;;30.70;28.89
80424;BME280;69765;47.668;19.326;2023-07-20T13:32:55;98568.94;;;30.99;28.44
80424;BME280;69765;47.668;19.326;2023-07-20T13:35:57;98585.09;;;30.51;28.21
80424;BME280;69765;47.668;19.326;2023-07-20T13:38:59;98566.38;;;30.23;28.91
80424;BME280;69765;47.668;19.326;2023-07-20T13:42:02;98576.97;;;30.22;27.26
80424;BME280;69765;47.668;19.326;2023-07-20T13:45:07;98571.84;;;30.14;27.66
80424;BME280;69765;47.668;19.326;2023-07-20T13:48:10;98571.22;;;30.03;27.50
80424;BME280;69765;47.668;19.326;2023-07-20T13:51:12;98559.09;;;29.93;28.58
80424;BME280;69765;47.668;19.326;2023-07-20T13:54:28;98565.06;;;30.01;28.83
80424;BME280;69765;47.668;19.326;2023-07-20T13:57:30;98565.66;;;30.17;28.24
80424;BME280;69765;47.668;19.326;2023-07-20T14:00:33;98562.81;;;29.84;28.14
80424;BME280;69765;47.668;19.326;2023-07-20T14:03:37;98551.47;;;29.79;28.63
80424;BME280;69765;47.668;19.326;2023-07-20T14:06:40;98558.69;;;29.71;28.39
80424;BME280;69765;47.668;19.326;2023-07-20T14:09:43;98553.47;;;29.68;28.92
80424;BME280;69765;47.668;19.326;2023-07-20T14:12:48;98542.25;;;29.97;30.67
80424;BME280;69765;47.668;19.326;2023-07-20T14:15:50;98557.81;;;30.11;28.36
80424;BME280;69765;47.668;19.326;2023-07-20T14:18:53;98559.94;;;29.95;28.51
80424;BME280;69765;47.668;19.326;2023-07-20T14:21:56;98561.84;;;29.87;28.69
80424;BME280;69765;47.668;19.326;2023-07-20T14:25:01;98567.47;;;29.71;28.67
80424;BME280;69765;47.668;19.326;2023-07-20T14:28:03;98558.44;;;29.83;29.15
80424;BME280;69765;47.668;19.326;2023-07-20T14:31:06;98558.63;;;29.74;29.19
80424;BME280;69765;47.668;19.326;2023-07-20T14:34:09;98564.63;;;29.81;29.70
80424;BME280;69765;47.668;19.326;2023-07-20T14:37:11;98567.78;;;29.98;29.16
80424;BME280;69765;47.668;19.326;2023-07-20T14:40:15;98557.13;;;30.02;29.96
80424;BME280;69765;47.668;19.326;2023-07-20T14:43:18;98577.72;;;29.87;28.98
80424;BME280;69765;47.668;19.326;2023-07-20T14:46:20;98573.22;;;29.47;28.61
80424;BME280;69765;47.668;19.326;2023-07-20T14:49:26;98578.28;;;29.13;30.42
80424;BME280;69765;47.668;19.326;2023-07-20T14:52:28;98576.34;;;29.21;30.51
80424;BME280;69765;47.668;19.326;2023-07-20T14:55:33;98572.84;;;29.22;30.64
80424;BME280;69765;47.668;19.326;2023-07-20T14:58:37;98573.53;;;29.30;30.51
80424;BME280;69765;47.668;19.326;2023-07-20T15:01:39;98573.84;;;29.15;30.55
80424;BME280;69765;47.668;19.326;2023-07-20T15:04:49;98572.09;;;29.12;30.86
80424;BME280;69765;47.668;19.326;2023-07-20T15:07:51;98577.47;;;29.09;31.35
80424;BME280;69765;47.668;19.326;2023-07-20T15:10:54;98565.31;;;29.00;30.33
80424;BME280;69765;47.668;19.326;2023-07-20T15:13:57;98583.47;;;29.17;31.10
80424;BME280;69765;47.668;19.326;2023-07-20T15:16:59;98567.69;;;29.14;30.28
80424;BME280;69765;47.668;19.326;2023-07-20T15:20:03;98571.81;;;29.29;31.05
80424;BME280;69765;47.668;19.326;2023-07-20T15:23:09;98572.09;;;29.14;30.61
80424;BME280;69765;47.668;19.326;2023-07-20T15:26:12;98569.25;;;28.75;31.16
80424;BME280;69765;47.668;19.326;2023-07-20T15:29:15;98577.16;;;28.75;31.94
80424;BME280;69765;47.668;19.326;2023-07-20T15:32:20;98574.81;;;28.55;32.38
80424;BME280;69765;47.668;19.326;2023-07-20T15:35:23;98579.09;;;28.62;32.13
80424;BME280;69765;47.668;19.326;2023-07-20T15:38:26;98570.31;;;28.63;31.71
80424;BME280;69765;47.668;19.326;2023-07-20T15:41:28;98579.16;;;28.61;32.38
80424;BME280;69765;47.668;19.326;2023-07-20T15:44:32;98584.75;;;28.39;32.97
80424;BME280;69765;47.668;19.326;2023-07-20T15:47:34;98583.66;;;28.51;32.63
80424;BME280;69765;47.668;19.326;2023-07-20T15:50:36;98587.13;;;28.56;32.50
80424;BME280;69765;47.668;19.326;2023-07-20T15:53:40;98581.78;;;28.61;30.78
80424;BME280;69765;47.668;19.326;2023-07-20T15:56:44;98585.19;;;28.67;31.34
80424;BME280;69765;47.668;19.326;2023-07-20T15:59:47;98587.63;;;28.78;32.34
80424;BME280;69765;47.668;19.326;2023-07-20T16:02:49;98586.84;;;28.73;32.31
80424;BME280;69765;47.668;19.326;2023-07-20T16:05:54;98582.75;;;28.53;31.52
80424;BME280;69765;47.668;19.326;2023-07-20T16:08:57;98580.31;;;28.41;32.78
80424;BME280;69765;47.668;19.326;2023-07-20T16:12:00;98569.91;;;28.31;32.54
80424;BME280;69765;47.668;19.326;2023-07-20T16:15:02;98578.91;;;28.16;32.39
80424;BME280;69765;47.668;19.326;2023-07-20T16:18:08;98586.91;;;28.08;32.97
80424;BME280;69765;47.668;19.326;2023-07-20T16:21:10;98591.41;;;28.00;34.72